Skip Navigation Links
NOAA logo - Click to go to the NOAA homepage
NOAA's National Weather Service
Alaska Aviation Weather Unit
  NWS logo - Click to go to the NWS homepage
Left Navbar Graphic     02 AKDT = 10 GMT

   
NOAA is celebrating 200 years of science, service, and stewardship. Visit the NOAA 200th celebration Web site to learn more.
USA.gov is the U.S. Government's official Web portal to all Federal, state and local government Web resources and services.
Facebook
NWS on Facebook

AAWU Home :: Display TAF Add Bookmark
TAF PAKT 270540Z 2706/2806 17010KT P6SM -RA SCT030 OVC040
      WS020/12030KT
     FM271000 15010KT P6SM -RA OVC030 WS020/14035KT
     FM271600 14015G25KT 6SM -RA BR BKN015 OVC022
      WS020/16040KT
     FM272300 14012G20KT 4SM RA BR OVC015 WS020/16035KT AMD
      LTD TO
      CLD VIS AND WIND 2706/2715=
METAR PAKT 270453Z 19006KT 10SM -RA SCT032 OVC042 04/03 A2956=

METAR PAKT 270553Z AUTO 17008KT 10SM -RA BKN030 OVC038 04/02 A2958=

SPECI PAKT 270614Z AUTO 15012KT -RA BKN028 OVC034 04/02 A2958 RMK AO2
     P0000 T00440022 TSNO $=

PAKT 270623Z AUTO 15013KT SCT028 OVC036 04/02 A2959=

METAR PAKT 270653Z AUTO 17008KT -RA SCT028 OVC034 04/02 A2960=

PAKT 270700Z AUTO 16009KT -RA BKN028 OVC034 04/03 A2960=

METAR PAKT 270753Z AUTO 16008KT 10SM -RA BKN022 OVC027 04/03 A2962=

METAR PAKT 270853Z AUTO 15012KT 8SM -RA FEW015 OVC023 05/03 A2963=

METAR PAKT 270953Z AUTO 17007KT 10SM OVC020 04/03 A2965=


NOAA's National Weather Service
Alaska Aviation Weather Unit
6930 Sand Lake Road
Anchorage, AK 99502-1845
Disclaimer
Credits
Glossary
Privacy Policy
About Us
Career Opportunities
Contact AAWU Internet Services Site last modified: April, 17th 2012